sensor_id;sensor_type;location;lat;lon;timestamp;P1;durP1;ratioP1;P2;durP2;ratioP2
30539;SDS011;17321;46.312;4.776;2023-08-17T00:01:52;3.17;;;1.70;;
30539;SDS011;17321;46.312;4.776;2023-08-17T00:04:18;2.38;;;1.40;;
30539;SDS011;17321;46.312;4.776;2023-08-17T00:06:44;2.03;;;1.50;;
30539;SDS011;17321;46.312;4.776;2023-08-17T00:09:12;4.32;;;1.90;;
30539;SDS011;17321;46.312;4.776;2023-08-17T00:11:38;3.53;;;2.05;;
30539;SDS011;17321;46.312;4.776;2023-08-17T00:14:04;3.08;;;2.00;;
30539;SDS011;17321;46.312;4.776;2023-08-17T00:16:31;2.28;;;1.85;;
30539;SDS011;17321;46.312;4.776;2023-08-17T00:18:57;4.43;;;1.70;;
30539;SDS011;17321;46.312;4.776;2023-08-17T00:21:23;2.47;;;1.38;;
30539;SDS011;17321;46.312;4.776;2023-08-17T00:23:49;3.72;;;1.45;;
30539;SDS011;17321;46.312;4.776;2023-08-17T00:26:15;7.38;;;1.67;;
30539;SDS011;17321;46.312;4.776;2023-08-17T00:28:41;3.95;;;1.80;;
30539;SDS011;17321;46.312;4.776;2023-08-17T00:31:07;8.32;;;1.92;;
30539;SDS011;17321;46.312;4.776;2023-08-17T00:33:33;2.17;;;1.40;;
30539;SDS011;17321;46.312;4.776;2023-08-17T00:35:59;5.50;;;1.60;;
30539;SDS011;17321;46.312;4.776;2023-08-17T00:38:26;3.85;;;1.60;;
30539;SDS011;17321;46.312;4.776;2023-08-17T00:40:52;3.42;;;1.50;;
30539;SDS011;17321;46.312;4.776;2023-08-17T00:43:19;2.13;;;1.27;;
30539;SDS011;17321;46.312;4.776;2023-08-17T00:45:45;7.13;;;1.75;;
30539;SDS011;17321;46.312;4.776;2023-08-17T00:48:12;6.10;;;1.58;;
30539;SDS011;17321;46.312;4.776;2023-08-17T00:50:39;4.00;;;1.73;;
30539;SDS011;17321;46.312;4.776;2023-08-17T00:53:05;3.38;;;1.90;;
30539;SDS011;17321;46.312;4.776;2023-08-17T00:55:32;4.20;;;1.52;;
30539;SDS011;17321;46.312;4.776;2023-08-17T00:57:59;2.92;;;1.67;;
30539;SDS011;17321;46.312;4.776;2023-08-17T01:00:25;5.05;;;1.75;;
30539;SDS011;17321;46.312;4.776;2023-08-17T01:02:54;4.82;;;1.67;;
30539;SDS011;17321;46.312;4.776;2023-08-17T01:05:21;2.50;;;1.92;;
30539;SDS011;17321;46.312;4.776;2023-08-17T01:07:47;5.53;;;2.38;;
30539;SDS011;17321;46.312;4.776;2023-08-17T01:10:13;4.85;;;1.60;;
30539;SDS011;17321;46.312;4.776;2023-08-17T01:15:24;4.07;;;2.00;;
30539;SDS011;17321;46.312;4.776;2023-08-17T01:20:19;5.95;;;2.78;;
30539;SDS011;17321;46.312;4.776;2023-08-17T01:22:47;5.07;;;1.70;;
30539;SDS011;17321;46.312;4.776;2023-08-17T01:25:14;2.40;;;1.77;;
30539;SDS011;17321;46.312;4.776;2023-08-17T01:27:41;5.90;;;2.00;;
30539;SDS011;17321;46.312;4.776;2023-08-17T01:30:08;3.17;;;1.98;;
30539;SDS011;17321;46.312;4.776;2023-08-17T01:32:42;4.05;;;1.67;;
30539;SDS011;17321;46.312;4.776;2023-08-17T01:37:39;6.20;;;2.00;;
30539;SDS011;17321;46.312;4.776;2023-08-17T01:40:06;2.60;;;1.92;;
30539;SDS011;17321;46.312;4.776;2023-08-17T01:42:34;3.67;;;1.83;;
30539;SDS011;17321;46.312;4.776;2023-08-17T01:45:01;3.00;;;1.92;;
30539;SDS011;17321;46.312;4.776;2023-08-17T01:47:27;2.65;;;1.88;;
30539;SDS011;17321;46.312;4.776;2023-08-17T01:49:53;8.90;;;1.77;;
30539;SDS011;17321;46.312;4.776;2023-08-17T01:52:20;4.32;;;2.20;;
30539;SDS011;17321;46.312;4.776;2023-08-17T01:54:46;7.20;;;2.17;;
30539;SDS011;17321;46.312;4.776;2023-08-17T01:57:12;4.03;;;1.80;;
30539;SDS011;17321;46.312;4.776;2023-08-17T01:59:38;3.17;;;1.90;;
30539;SDS011;17321;46.312;4.776;2023-08-17T02:02:05;4.53;;;2.05;;
30539;SDS011;17321;46.312;4.776;2023-08-17T02:04:31;2.10;;;1.90;;
30539;SDS011;17321;46.312;4.776;2023-08-17T02:06:57;2.38;;;1.65;;
30539;SDS011;17321;46.312;4.776;2023-08-17T02:09:23;8.80;;;2.63;;
30539;SDS011;17321;46.312;4.776;2023-08-17T02:11:49;4.28;;;2.00;;
30539;SDS011;17321;46.312;4.776;2023-08-17T02:14:15;6.15;;;1.65;;
30539;SDS011;17321;46.312;4.776;2023-08-17T02:16:41;7.95;;;2.05;;
30539;SDS011;17321;46.312;4.776;2023-08-17T02:19:07;3.03;;;1.98;;
30539;SDS011;17321;46.312;4.776;2023-08-17T02:21:33;4.05;;;2.10;;
30539;SDS011;17321;46.312;4.776;2023-08-17T02:24:00;4.50;;;2.20;;
30539;SDS011;17321;46.312;4.776;2023-08-17T02:26:26;2.97;;;2.17;;
30539;SDS011;17321;46.312;4.776;2023-08-17T02:28:52;3.08;;;1.83;;
30539;SDS011;17321;46.312;4.776;2023-08-17T02:31:18;4.68;;;2.03;;
30539;SDS011;17321;46.312;4.776;2023-08-17T02:33:44;3.30;;;2.20;;
30539;SDS011;17321;46.312;4.776;2023-08-17T02:36:10;8.68;;;2.55;;
30539;SDS011;17321;46.312;4.776;2023-08-17T02:38:36;6.18;;;2.05;;
30539;SDS011;17321;46.312;4.776;2023-08-17T02:41:02;6.28;;;1.90;;
30539;SDS011;17321;46.312;4.776;2023-08-17T02:43:28;2.63;;;1.50;;
30539;SDS011;17321;46.312;4.776;2023-08-17T02:45:54;2.95;;;1.67;;
30539;SDS011;17321;46.312;4.776;2023-08-17T02:48:20;3.47;;;2.20;;
30539;SDS011;17321;46.312;4.776;2023-08-17T02:50:46;2.95;;;2.03;;
30539;SDS011;17321;46.312;4.776;2023-08-17T02:53:12;3.22;;;1.92;;
30539;SDS011;17321;46.312;4.776;2023-08-17T02:55:39;3.47;;;2.00;;
30539;SDS011;17321;46.312;4.776;2023-08-17T02:58:05;4.70;;;2.10;;
30539;SDS011;17321;46.312;4.776;2023-08-17T03:00:31;6.20;;;2.13;;
30539;SDS011;17321;46.312;4.776;2023-08-17T03:02:57;5.00;;;2.05;;
30539;SDS011;17321;46.312;4.776;2023-08-17T03:05:23;8.10;;;2.30;;
30539;SDS011;17321;46.312;4.776;2023-08-17T03:07:49;3.55;;;2.10;;
30539;SDS011;17321;46.312;4.776;2023-08-17T03:10:16;2.85;;;1.95;;
30539;SDS011;17321;46.312;4.776;2023-08-17T03:12:42;6.65;;;2.10;;
30539;SDS011;17321;46.312;4.776;2023-08-17T03:15:08;6.32;;;2.22;;
30539;SDS011;17321;46.312;4.776;2023-08-17T03:17:34;2.65;;;2.00;;
30539;SDS011;17321;46.312;4.776;2023-08-17T03:20:00;4.60;;;2.33;;
30539;SDS011;17321;46.312;4.776;2023-08-17T03:22:27;5.32;;;2.42;;
30539;SDS011;17321;46.312;4.776;2023-08-17T03:24:54;10.75;;;1.90;;
30539;SDS011;17321;46.312;4.776;2023-08-17T03:27:21;7.05;;;2.47;;
30539;SDS011;17321;46.312;4.776;2023-08-17T03:29:47;2.30;;;1.80;;
30539;SDS011;17321;46.312;4.776;2023-08-17T03:32:13;2.53;;;2.22;;
30539;SDS011;17321;46.312;4.776;2023-08-17T03:34:39;2.33;;;2.08;;
30539;SDS011;17321;46.312;4.776;2023-08-17T03:37:05;2.60;;;1.73;;
30539;SDS011;17321;46.312;4.776;2023-08-17T03:39:32;5.63;;;2.25;;
30539;SDS011;17321;46.312;4.776;2023-08-17T03:41:58;8.52;;;2.42;;
30539;SDS011;17321;46.312;4.776;2023-08-17T03:44:24;2.97;;;2.55;;
30539;SDS011;17321;46.312;4.776;2023-08-17T03:46:50;3.85;;;2.22;;
30539;SDS011;17321;46.312;4.776;2023-08-17T03:49:16;2.55;;;2.05;;
30539;SDS011;17321;46.312;4.776;2023-08-17T03:51:42;5.40;;;2.45;;
30539;SDS011;17321;46.312;4.776;2023-08-17T03:54:08;6.60;;;2.65;;
30539;SDS011;17321;46.312;4.776;2023-08-17T03:56:34;6.75;;;2.67;;
30539;SDS011;17321;46.312;4.776;2023-08-17T03:59:00;5.43;;;2.58;;
30539;SDS011;17321;46.312;4.776;2023-08-17T04:01:26;9.65;;;2.67;;
30539;SDS011;17321;46.312;4.776;2023-08-17T04:03:52;3.10;;;2.20;;
30539;SDS011;17321;46.312;4.776;2023-08-17T04:06:18;10.63;;;2.30;;
30539;SDS011;17321;46.312;4.776;2023-08-17T04:08:45;5.00;;;2.42;;
30539;SDS011;17321;46.312;4.776;2023-08-17T04:11:11;4.75;;;2.50;;
30539;SDS011;17321;46.312;4.776;2023-08-17T04:13:37;3.85;;;2.97;;
30539;SDS011;17321;46.312;4.776;2023-08-17T04:16:03;6.60;;;2.30;;
30539;SDS011;17321;46.312;4.776;2023-08-17T04:18:29;4.95;;;2.63;;
30539;SDS011;17321;46.312;4.776;2023-08-17T04:20:55;4.70;;;2.60;;
30539;SDS011;17321;46.312;4.776;2023-08-17T04:23:21;20.48;;;4.43;;
30539;SDS011;17321;46.312;4.776;2023-08-17T04:25:47;8.90;;;3.70;;
30539;SDS011;17321;46.312;4.776;2023-08-17T04:28:14;9.63;;;3.28;;
30539;SDS011;17321;46.312;4.776;2023-08-17T04:30:40;8.30;;;3.15;;
30539;SDS011;17321;46.312;4.776;2023-08-17T04:33:06;7.75;;;2.97;;
30539;SDS011;17321;46.312;4.776;2023-08-17T04:35:33;7.75;;;3.33;;
30539;SDS011;17321;46.312;4.776;2023-08-17T04:37:59;2.58;;;2.38;;
30539;SDS011;17321;46.312;4.776;2023-08-17T04:40:25;7.85;;;3.25;;
30539;SDS011;17321;46.312;4.776;2023-08-17T04:42:51;4.40;;;2.75;;
30539;SDS011;17321;46.312;4.776;2023-08-17T04:45:17;6.38;;;2.95;;
30539;SDS011;17321;46.312;4.776;2023-08-17T04:47:43;9.73;;;3.33;;
30539;SDS011;17321;46.312;4.776;2023-08-17T04:50:09;10.15;;;2.70;;
30539;SDS011;17321;46.312;4.776;2023-08-17T04:52:37;12.18;;;2.90;;
30539;SDS011;17321;46.312;4.776;2023-08-17T04:55:03;8.07;;;3.50;;
30539;SDS011;17321;46.312;4.776;2023-08-17T04:57:30;11.63;;;3.10;;
30539;SDS011;17321;46.312;4.776;2023-08-17T04:59:56;4.85;;;3.55;;
30539;SDS011;17321;46.312;4.776;2023-08-17T05:02:23;5.28;;;3.42;;
30539;SDS011;17321;46.312;4.776;2023-08-17T05:04:49;9.48;;;3.63;;
30539;SDS011;17321;46.312;4.776;2023-08-17T05:07:15;6.50;;;2.70;;
30539;SDS011;17321;46.312;4.776;2023-08-17T05:09:41;10.15;;;4.43;;
30539;SDS011;17321;46.312;4.776;2023-08-17T05:12:07;4.57;;;2.75;;
30539;SDS011;17321;46.312;4.776;2023-08-17T05:14:34;5.60;;;3.08;;
30539;SDS011;17321;46.312;4.776;2023-08-17T05:17:00;6.95;;;3.35;;
30539;SDS011;17321;46.312;4.776;2023-08-17T05:19:26;3.60;;;3.00;;
30539;SDS011;17321;46.312;4.776;2023-08-17T05:21:52;7.00;;;3.38;;
30539;SDS011;17321;46.312;4.776;2023-08-17T05:24:18;7.53;;;4.03;;
30539;SDS011;17321;46.312;4.776;2023-08-17T05:26:45;7.15;;;4.50;;
30539;SDS011;17321;46.312;4.776;2023-08-17T05:29:11;5.32;;;3.40;;
30539;SDS011;17321;46.312;4.776;2023-08-17T05:31:37;3.13;;;2.55;;
30539;SDS011;17321;46.312;4.776;2023-08-17T05:34:03;16.88;;;4.05;;
30539;SDS011;17321;46.312;4.776;2023-08-17T05:36:30;8.50;;;3.83;;
30539;SDS011;17321;46.312;4.776;2023-08-17T05:38:56;5.78;;;3.40;;
30539;SDS011;17321;46.312;4.776;2023-08-17T05:41:22;8.60;;;3.92;;
30539;SDS011;17321;46.312;4.776;2023-08-17T05:43:48;8.05;;;4.32;;
30539;SDS011;17321;46.312;4.776;2023-08-17T05:46:14;9.07;;;4.95;;
30539;SDS011;17321;46.312;4.776;2023-08-17T05:48:40;11.40;;;6.45;;
30539;SDS011;17321;46.312;4.776;2023-08-17T05:51:06;7.57;;;5.82;;
30539;SDS011;17321;46.312;4.776;2023-08-17T05:53:32;11.73;;;6.05;;
30539;SDS011;17321;46.312;4.776;2023-08-17T05:55:59;8.10;;;6.05;;
30539;SDS011;17321;46.312;4.776;2023-08-17T05:58:25;13.32;;;5.97;;
30539;SDS011;17321;46.312;4.776;2023-08-17T06:00:51;8.77;;;6.18;;
30539;SDS011;17321;46.312;4.776;2023-08-17T06:03:17;9.40;;;5.55;;
30539;SDS011;17321;46.312;4.776;2023-08-17T06:05:43;8.68;;;4.50;;
30539;SDS011;17321;46.312;4.776;2023-08-17T06:08:09;8.68;;;5.07;;
30539;SDS011;17321;46.312;4.776;2023-08-17T06:10:35;6.57;;;4.20;;
30539;SDS011;17321;46.312;4.776;2023-08-17T06:13:01;7.30;;;4.53;;
30539;SDS011;17321;46.312;4.776;2023-08-17T06:15:27;7.75;;;4.38;;
30539;SDS011;17321;46.312;4.776;2023-08-17T06:17:54;6.35;;;4.28;;
30539;SDS011;17321;46.312;4.776;2023-08-17T06:20:20;7.95;;;5.63;;
30539;SDS011;17321;46.312;4.776;2023-08-17T06:22:47;7.70;;;4.25;;
30539;SDS011;17321;46.312;4.776;2023-08-17T06:25:14;7.13;;;4.00;;
30539;SDS011;17321;46.312;4.776;2023-08-17T06:27:41;7.90;;;3.95;;
30539;SDS011;17321;46.312;4.776;2023-08-17T06:30:08;7.97;;;4.43;;
30539;SDS011;17321;46.312;4.776;2023-08-17T06:32:34;6.32;;;4.90;;
30539;SDS011;17321;46.312;4.776;2023-08-17T06:35:01;6.47;;;4.40;;
30539;SDS011;17321;46.312;4.776;2023-08-17T06:37:27;4.47;;;3.85;;
30539;SDS011;17321;46.312;4.776;2023-08-17T06:39:53;9.13;;;4.60;;
30539;SDS011;17321;46.312;4.776;2023-08-17T06:42:19;6.88;;;3.80;;
30539;SDS011;17321;46.312;4.776;2023-08-17T06:44:45;6.20;;;3.92;;
30539;SDS011;17321;46.312;4.776;2023-08-17T06:47:11;8.48;;;4.13;;
30539;SDS011;17321;46.312;4.776;2023-08-17T06:49:38;6.20;;;3.88;;
30539;SDS011;17321;46.312;4.776;2023-08-17T06:52:04;6.60;;;4.50;;
30539;SDS011;17321;46.312;4.776;2023-08-17T06:54:30;7.55;;;4.25;;
30539;SDS011;17321;46.312;4.776;2023-08-17T06:56:57;7.35;;;5.18;;
30539;SDS011;17321;46.312;4.776;2023-08-17T06:59:23;8.65;;;5.32;;
30539;SDS011;17321;46.312;4.776;2023-08-17T07:01:49;9.10;;;5.18;;
30539;SDS011;17321;46.312;4.776;2023-08-17T07:04:15;9.32;;;5.53;;
30539;SDS011;17321;46.312;4.776;2023-08-17T07:06:42;5.85;;;4.57;;
30539;SDS011;17321;46.312;4.776;2023-08-17T07:09:08;9.00;;;5.75;;
30539;SDS011;17321;46.312;4.776;2023-08-17T07:11:37;11.68;;;5.60;;
30539;SDS011;17321;46.312;4.776;2023-08-17T07:14:04;9.20;;;5.57;;
30539;SDS011;17321;46.312;4.776;2023-08-17T07:16:31;10.65;;;6.03;;
30539;SDS011;17321;46.312;4.776;2023-08-17T07:18:57;10.20;;;4.78;;
30539;SDS011;17321;46.312;4.776;2023-08-17T07:21:24;8.30;;;5.32;;
30539;SDS011;17321;46.312;4.776;2023-08-17T07:23:50;8.00;;;4.45;;
30539;SDS011;17321;46.312;4.776;2023-08-17T07:26:16;13.45;;;6.57;;
30539;SDS011;17321;46.312;4.776;2023-08-17T07:28:44;12.45;;;5.25;;
30539;SDS011;17321;46.312;4.776;2023-08-17T07:31:10;6.45;;;5.28;;
30539;SDS011;17321;46.312;4.776;2023-08-17T07:33:36;6.15;;;4.95;;
30539;SDS011;17321;46.312;4.776;2023-08-17T07:36:02;8.90;;;5.43;;
30539;SDS011;17321;46.312;4.776;2023-08-17T07:38:29;11.02;;;5.15;;
30539;SDS011;17321;46.312;4.776;2023-08-17T07:40:55;11.10;;;6.38;;
30539;SDS011;17321;46.312;4.776;2023-08-17T07:43:22;9.13;;;6.88;;
30539;SDS011;17321;46.312;4.776;2023-08-17T07:45:54;12.00;;;5.50;;
30539;SDS011;17321;46.312;4.776;2023-08-17T07:48:21;10.30;;;5.75;;
30539;SDS011;17321;46.312;4.776;2023-08-17T07:50:50;7.43;;;4.85;;
30539;SDS011;17321;46.312;4.776;2023-08-17T07:53:17;7.53;;;4.85;;
30539;SDS011;17321;46.312;4.776;2023-08-17T07:55:43;9.48;;;6.97;;
30539;SDS011;17321;46.312;4.776;2023-08-17T07:58:09;7.95;;;5.97;;
30539;SDS011;17321;46.312;4.776;2023-08-17T08:00:35;7.13;;;5.30;;
30539;SDS011;17321;46.312;4.776;2023-08-17T08:03:02;7.72;;;5.85;;
30539;SDS011;17321;46.312;4.776;2023-08-17T08:05:28;6.97;;;4.70;;
30539;SDS011;17321;46.312;4.776;2023-08-17T08:07:54;8.05;;;5.90;;
30539;SDS011;17321;46.312;4.776;2023-08-17T08:10:20;8.48;;;5.32;;
30539;SDS011;17321;46.312;4.776;2023-08-17T08:12:46;7.78;;;6.18;;
30539;SDS011;17321;46.312;4.776;2023-08-17T08:15:13;7.57;;;5.85;;
30539;SDS011;17321;46.312;4.776;2023-08-17T08:17:45;10.60;;;6.30;;
30539;SDS011;17321;46.312;4.776;2023-08-17T08:20:11;15.65;;;6.90;;
30539;SDS011;17321;46.312;4.776;2023-08-17T08:22:38;7.25;;;5.65;;
30539;SDS011;17321;46.312;4.776;2023-08-17T08:25:04;9.95;;;6.88;;
30539;SDS011;17321;46.312;4.776;2023-08-17T08:27:30;10.48;;;6.00;;
30539;SDS011;17321;46.312;4.776;2023-08-17T08:29:56;11.73;;;5.50;;
30539;SDS011;17321;46.312;4.776;2023-08-17T08:32:22;12.20;;;5.40;;
30539;SDS011;17321;46.312;4.776;2023-08-17T08:34:48;6.43;;;5.80;;
30539;SDS011;17321;46.312;4.776;2023-08-17T08:37:14;7.07;;;4.90;;
30539;SDS011;17321;46.312;4.776;2023-08-17T08:39:53;8.90;;;4.90;;
30539;SDS011;17321;46.312;4.776;2023-08-17T08:42:20;7.05;;;4.85;;
30539;SDS011;17321;46.312;4.776;2023-08-17T08:44:46;7.47;;;5.30;;
30539;SDS011;17321;46.312;4.776;2023-08-17T08:47:13;6.60;;;5.55;;
30539;SDS011;17321;46.312;4.776;2023-08-17T08:49:40;8.70;;;4.80;;
30539;SDS011;17321;46.312;4.776;2023-08-17T08:52:11;5.00;;;4.57;;
30539;SDS011;17321;46.312;4.776;2023-08-17T08:54:38;9.93;;;5.30;;
30539;SDS011;17321;46.312;4.776;2023-08-17T08:57:08;9.85;;;6.55;;
30539;SDS011;17321;46.312;4.776;2023-08-17T08:59:34;10.77;;;5.57;;
30539;SDS011;17321;46.312;4.776;2023-08-17T09:02:01;10.57;;;5.13;;
30539;SDS011;17321;46.312;4.776;2023-08-17T09:04:28;9.23;;;5.70;;
30539;SDS011;17321;46.312;4.776;2023-08-17T09:06:55;9.48;;;5.32;;
30539;SDS011;17321;46.312;4.776;2023-08-17T09:09:22;8.50;;;5.68;;
30539;SDS011;17321;46.312;4.776;2023-08-17T09:11:48;7.10;;;4.95;;
30539;SDS011;17321;46.312;4.776;2023-08-17T09:14:14;5.60;;;5.05;;
30539;SDS011;17321;46.312;4.776;2023-08-17T09:16:40;6.80;;;4.80;;
30539;SDS011;17321;46.312;4.776;2023-08-17T09:19:07;6.95;;;4.38;;
30539;SDS011;17321;46.312;4.776;2023-08-17T09:21:33;9.45;;;4.72;;
30539;SDS011;17321;46.312;4.776;2023-08-17T09:23:59;8.13;;;4.43;;
30539;SDS011;17321;46.312;4.776;2023-08-17T09:26:25;9.68;;;4.35;;
30539;SDS011;17321;46.312;4.776;2023-08-17T09:28:56;7.97;;;4.07;;
30539;SDS011;17321;46.312;4.776;2023-08-17T09:31:24;5.53;;;4.20;;
30539;SDS011;17321;46.312;4.776;2023-08-17T09:33:50;8.85;;;3.85;;
30539;SDS011;17321;46.312;4.776;2023-08-17T09:36:20;6.72;;;4.20;;
30539;SDS011;17321;46.312;4.776;2023-08-17T09:38:47;4.60;;;3.75;;
30539;SDS011;17321;46.312;4.776;2023-08-17T09:41:15;10.98;;;4.35;;
30539;SDS011;17321;46.312;4.776;2023-08-17T09:43:41;9.10;;;3.88;;
30539;SDS011;17321;46.312;4.776;2023-08-17T09:46:07;10.40;;;4.32;;
30539;SDS011;17321;46.312;4.776;2023-08-17T09:48:35;4.72;;;3.50;;
30539;SDS011;17321;46.312;4.776;2023-08-17T09:51:02;8.48;;;3.80;;
30539;SDS011;17321;46.312;4.776;2023-08-17T09:53:28;7.32;;;3.30;;
30539;SDS011;17321;46.312;4.776;2023-08-17T09:55:54;5.97;;;3.00;;
30539;SDS011;17321;46.312;4.776;2023-08-17T09:58:20;5.68;;;3.25;;
30539;SDS011;17321;46.312;4.776;2023-08-17T10:00:47;8.18;;;3.65;;
30539;SDS011;17321;46.312;4.776;2023-08-17T10:03:17;7.78;;;3.42;;
30539;SDS011;17321;46.312;4.776;2023-08-17T10:05:44;6.85;;;3.25;;
30539;SDS011;17321;46.312;4.776;2023-08-17T10:08:11;6.45;;;2.92;;
30539;SDS011;17321;46.312;4.776;2023-08-17T10:10:38;10.70;;;3.00;;
30539;SDS011;17321;46.312;4.776;2023-08-17T10:13:10;5.45;;;3.30;;
30539;SDS011;17321;46.312;4.776;2023-08-17T10:15:55;6.22;;;3.40;;
30539;SDS011;17321;46.312;4.776;2023-08-17T10:18:31;3.33;;;3.03;;
30539;SDS011;17321;46.312;4.776;2023-08-17T10:23:29;4.40;;;3.30;;
30539;SDS011;17321;46.312;4.776;2023-08-17T10:25:55;7.18;;;2.88;;
30539;SDS011;17321;46.312;4.776;2023-08-17T10:28:22;6.30;;;2.60;;
30539;SDS011;17321;46.312;4.776;2023-08-17T10:30:50;4.90;;;2.60;;
30539;SDS011;17321;46.312;4.776;2023-08-17T10:33:16;4.45;;;2.70;;
30539;SDS011;17321;46.312;4.776;2023-08-17T10:35:43;10.70;;;2.63;;
30539;SDS011;17321;46.312;4.776;2023-08-17T10:38:10;4.35;;;2.80;;
30539;SDS011;17321;46.312;4.776;2023-08-17T10:40:40;6.80;;;3.22;;
30539;SDS011;17321;46.312;4.776;2023-08-17T10:43:07;4.90;;;2.97;;
30539;SDS011;17321;46.312;4.776;2023-08-17T10:45:34;5.85;;;3.10;;
30539;SDS011;17321;46.312;4.776;2023-08-17T10:50:33;5.28;;;2.95;;
30539;SDS011;17321;46.312;4.776;2023-08-17T10:53:18;7.57;;;2.65;;
30539;SDS011;17321;46.312;4.776;2023-08-17T10:55:45;3.10;;;2.50;;
30539;SDS011;17321;46.312;4.776;2023-08-17T10:58:14;5.32;;;2.75;;
30539;SDS011;17321;46.312;4.776;2023-08-17T11:00:41;4.40;;;2.70;;
30539;SDS011;17321;46.312;4.776;2023-08-17T11:03:08;3.35;;;2.45;;
30539;SDS011;17321;46.312;4.776;2023-08-17T11:05:41;3.35;;;2.70;;
30539;SDS011;17321;46.312;4.776;2023-08-17T11:08:12;6.00;;;3.08;;
30539;SDS011;17321;46.312;4.776;2023-08-17T11:13:33;3.90;;;2.58;;
30539;SDS011;17321;46.312;4.776;2023-08-17T11:15:59;8.35;;;2.80;;
30539;SDS011;17321;46.312;4.776;2023-08-17T11:18:26;5.70;;;2.55;;
30539;SDS011;17321;46.312;4.776;2023-08-17T11:20:52;3.63;;;2.58;;
30539;SDS011;17321;46.312;4.776;2023-08-17T11:23:19;6.80;;;2.78;;
30539;SDS011;17321;46.312;4.776;2023-08-17T11:25:45;3.55;;;3.00;;
30539;SDS011;17321;46.312;4.776;2023-08-17T11:28:11;3.17;;;2.78;;
30539;SDS011;17321;46.312;4.776;2023-08-17T11:30:39;8.68;;;3.40;;
30539;SDS011;17321;46.312;4.776;2023-08-17T11:33:05;3.25;;;2.70;;
30539;SDS011;17321;46.312;4.776;2023-08-17T11:35:32;2.97;;;2.72;;
30539;SDS011;17321;46.312;4.776;2023-08-17T11:37:58;7.47;;;2.90;;
30539;SDS011;17321;46.312;4.776;2023-08-17T11:40:24;5.07;;;2.88;;
30539;SDS011;17321;46.312;4.776;2023-08-17T11:42:51;3.60;;;2.83;;
30539;SDS011;17321;46.312;4.776;2023-08-17T11:45:17;6.85;;;3.20;;
30539;SDS011;17321;46.312;4.776;2023-08-17T11:47:43;5.75;;;2.75;;
30539;SDS011;17321;46.312;4.776;2023-08-17T11:50:10;6.20;;;2.97;;
30539;SDS011;17321;46.312;4.776;2023-08-17T11:52:37;2.53;;;2.33;;
30539;SDS011;17321;46.312;4.776;2023-08-17T11:55:04;2.67;;;2.35;;
30539;SDS011;17321;46.312;4.776;2023-08-17T11:57:31;4.60;;;2.70;;
30539;SDS011;17321;46.312;4.776;2023-08-17T11:59:58;4.30;;;2.35;;
30539;SDS011;17321;46.312;4.776;2023-08-17T12:02:24;3.30;;;2.40;;
30539;SDS011;17321;46.312;4.776;2023-08-17T12:04:51;4.72;;;2.75;;
30539;SDS011;17321;46.312;4.776;2023-08-17T12:07:17;8.98;;;2.47;;
30539;SDS011;17321;46.312;4.776;2023-08-17T12:09:44;2.97;;;2.33;;
30539;SDS011;17321;46.312;4.776;2023-08-17T12:12:11;6.88;;;2.83;;
30539;SDS011;17321;46.312;4.776;2023-08-17T12:14:41;2.53;;;2.17;;
30539;SDS011;17321;46.312;4.776;2023-08-17T12:17:13;7.35;;;2.53;;
30539;SDS011;17321;46.312;4.776;2023-08-17T12:19:39;3.40;;;2.55;;
30539;SDS011;17321;46.312;4.776;2023-08-17T12:22:05;4.93;;;2.67;;
30539;SDS011;17321;46.312;4.776;2023-08-17T12:24:32;2.72;;;2.53;;
30539;SDS011;17321;46.312;4.776;2023-08-17T12:26:59;2.85;;;2.53;;
30539;SDS011;17321;46.312;4.776;2023-08-17T12:29:26;5.28;;;2.50;;
30539;SDS011;17321;46.312;4.776;2023-08-17T12:31:52;3.10;;;2.55;;
30539;SDS011;17321;46.312;4.776;2023-08-17T12:34:19;6.07;;;2.78;;
30539;SDS011;17321;46.312;4.776;2023-08-17T12:36:45;7.32;;;2.50;;
30539;SDS011;17321;46.312;4.776;2023-08-17T12:39:11;5.47;;;2.50;;
30539;SDS011;17321;46.312;4.776;2023-08-17T12:41:37;6.00;;;2.78;;
30539;SDS011;17321;46.312;4.776;2023-08-17T12:44:03;6.65;;;2.33;;
30539;SDS011;17321;46.312;4.776;2023-08-17T12:46:29;7.18;;;3.00;;
30539;SDS011;17321;46.312;4.776;2023-08-17T12:48:58;5.72;;;2.28;;
30539;SDS011;17321;46.312;4.776;2023-08-17T12:51:24;4.47;;;2.22;;
30539;SDS011;17321;46.312;4.776;2023-08-17T12:53:50;6.25;;;2.70;;
30539;SDS011;17321;46.312;4.776;2023-08-17T12:56:16;6.32;;;2.47;;
30539;SDS011;17321;46.312;4.776;2023-08-17T12:58:42;7.15;;;2.63;;
30539;SDS011;17321;46.312;4.776;2023-08-17T13:01:09;8.18;;;3.00;;
30539;SDS011;17321;46.312;4.776;2023-08-17T13:03:35;2.47;;;2.17;;
30539;SDS011;17321;46.312;4.776;2023-08-17T13:06:01;4.32;;;2.38;;
30539;SDS011;17321;46.312;4.776;2023-08-17T13:08:27;7.22;;;2.13;;
30539;SDS011;17321;46.312;4.776;2023-08-17T13:10:54;7.75;;;2.33;;
30539;SDS011;17321;46.312;4.776;2023-08-17T13:13:20;3.97;;;2.28;;
30539;SDS011;17321;46.312;4.776;2023-08-17T13:15:46;6.55;;;2.50;;
30539;SDS011;17321;46.312;4.776;2023-08-17T13:18:12;3.35;;;2.40;;
30539;SDS011;17321;46.312;4.776;2023-08-17T13:20:38;5.82;;;2.80;;
30539;SDS011;17321;46.312;4.776;2023-08-17T13:23:05;8.30;;;2.47;;
30539;SDS011;17321;46.312;4.776;2023-08-17T13:25:31;6.38;;;2.38;;
30539;SDS011;17321;46.312;4.776;2023-08-17T13:27:57;5.32;;;2.60;;
30539;SDS011;17321;46.312;4.776;2023-08-17T13:30:24;5.20;;;2.50;;
30539;SDS011;17321;46.312;4.776;2023-08-17T13:32:50;6.63;;;2.13;;
30539;SDS011;17321;46.312;4.776;2023-08-17T13:35:16;4.90;;;2.95;;
30539;SDS011;17321;46.312;4.776;2023-08-17T13:37:42;5.32;;;2.20;;
30539;SDS011;17321;46.312;4.776;2023-08-17T13:40:09;10.25;;;2.78;;
30539;SDS011;17321;46.312;4.776;2023-08-17T13:42:35;5.07;;;2.33;;
30539;SDS011;17321;46.312;4.776;2023-08-17T13:45:02;9.05;;;2.97;;
30539;SDS011;17321;46.312;4.776;2023-08-17T13:47:28;7.97;;;2.67;;
30539;SDS011;17321;46.312;4.776;2023-08-17T13:49:54;3.75;;;2.50;;
30539;SDS011;17321;46.312;4.776;2023-08-17T13:52:22;4.93;;;2.47;;
30539;SDS011;17321;46.312;4.776;2023-08-17T13:54:48;4.65;;;2.22;;
30539;SDS011;17321;46.312;4.776;2023-08-17T13:57:14;5.47;;;2.78;;
30539;SDS011;17321;46.312;4.776;2023-08-17T13:59:40;6.97;;;2.67;;
30539;SDS011;17321;46.312;4.776;2023-08-17T14:02:07;5.63;;;2.70;;
30539;SDS011;17321;46.312;4.776;2023-08-17T14:04:33;7.80;;;2.55;;
30539;SDS011;17321;46.312;4.776;2023-08-17T14:06:59;2.95;;;2.47;;
30539;SDS011;17321;46.312;4.776;2023-08-17T14:09:25;6.95;;;2.85;;
30539;SDS011;17321;46.312;4.776;2023-08-17T14:11:52;4.95;;;2.67;;
30539;SDS011;17321;46.312;4.776;2023-08-17T14:14:18;5.68;;;2.50;;
30539;SDS011;17321;46.312;4.776;2023-08-17T14:16:44;5.78;;;2.78;;
30539;SDS011;17321;46.312;4.776;2023-08-17T14:19:10;4.43;;;2.50;;
30539;SDS011;17321;46.312;4.776;2023-08-17T14:21:36;7.43;;;2.50;;
30539;SDS011;17321;46.312;4.776;2023-08-17T14:24:02;7.18;;;2.42;;
30539;SDS011;17321;46.312;4.776;2023-08-17T14:26:29;9.15;;;2.80;;
30539;SDS011;17321;46.312;4.776;2023-08-17T14:28:55;12.85;;;3.20;;
30539;SDS011;17321;46.312;4.776;2023-08-17T14:31:21;6.18;;;2.65;;
30539;SDS011;17321;46.312;4.776;2023-08-17T14:33:47;4.80;;;2.40;;
30539;SDS011;17321;46.312;4.776;2023-08-17T14:36:14;6.45;;;2.85;;
30539;SDS011;17321;46.312;4.776;2023-08-17T14:38:40;11.38;;;2.40;;
30539;SDS011;17321;46.312;4.776;2023-08-17T14:41:07;6.65;;;2.15;;
30539;SDS011;17321;46.312;4.776;2023-08-17T14:43:34;7.47;;;2.53;;
30539;SDS011;17321;46.312;4.776;2023-08-17T14:46:00;2.85;;;2.17;;
30539;SDS011;17321;46.312;4.776;2023-08-17T14:48:26;4.32;;;2.25;;
30539;SDS011;17321;46.312;4.776;2023-08-17T14:50:52;4.88;;;2.22;;
30539;SDS011;17321;46.312;4.776;2023-08-17T14:53:18;14.50;;;2.72;;
30539;SDS011;17321;46.312;4.776;2023-08-17T14:55:45;8.15;;;2.63;;
30539;SDS011;17321;46.312;4.776;2023-08-17T14:58:11;4.95;;;2.53;;